You are not logged in, Click here to log in
昆明長水國際機場KMG / ZPPP 中華人民共和國雲南省昆明市新啟用
ICAO: ZPPP Country: 中華人民共和國雲南省昆明市新啟用
Latitude: 25.0992 Longitude: 102.927
Total Arrivals: 25 Total Departures: 23
Latest Arrival: MU2572 (VNKT-ZPPP)Arthur. Kung Latest Departure: MU5843 (ZPPP-ZUUU)Arthur. Kung
Scenery:
METAR : ZPPP 110300Z 23010MPS 9999 SCT026 OVC043 21/17 Q1013 NOSIG

昆明長水國際機場KMG

You are accessing this site from IP address 34.229.119.29. Virtual Airline. CMS by phpVMS.Website designed by Zumeweb and edited by Theo Bearman.
There is 1 User(s) Online: | Lun Wang | and 23 Guest(s) Online.
All information on this site is for fight simulation purposes only. This site is for flight logging for pilots of Virtual Airline&模擬飛行論壇 FlySim only.